createdAt,value
2018-10-07T00:01:37.345Z,100299.67
2018-10-07T00:04:06.640Z,100303.76
2018-10-07T00:06:35.955Z,100315.88
2018-10-07T00:09:06.581Z,100319.23
2018-10-07T00:11:35.727Z,100324.75
2018-10-07T00:14:07.631Z,100334.00
2018-10-07T00:16:36.786Z,100349.14
2018-10-07T00:19:05.933Z,100354.12
2018-10-07T00:21:35.293Z,100359.95
2018-10-07T00:24:04.414Z,100350.28
2018-10-07T00:26:33.598Z,100356.73
2018-10-07T00:29:02.931Z,100360.28
2018-10-07T00:31:32.280Z,100355.79
2018-10-07T00:34:01.535Z,100361.75
2018-10-07T00:36:30.906Z,100365.01
2018-10-07T00:39:04.008Z,100368.00
2018-10-07T00:41:33.382Z,100369.63
2018-10-07T00:44:02.600Z,100377.45
2018-10-07T00:46:31.871Z,100386.33
2018-10-07T00:49:01.096Z,100391.77
2018-10-07T00:51:31.077Z,100403.12
2018-10-07T00:54:00.622Z,100409.30
2018-10-07T00:56:34.123Z,100409.30
2018-10-07T00:59:03.752Z,100414.95
2018-10-07T01:01:32.897Z,100419.34
2018-10-07T01:04:02.096Z,100424.70
2018-10-07T01:06:31.466Z,100431.23
2018-10-07T01:09:00.575Z,100431.19
2018-10-07T01:11:29.958Z,100436.06
2018-10-07T01:13:59.047Z,100431.45
2018-10-07T01:16:28.723Z,100448.73
2018-10-07T01:18:57.801Z,100446.59
2018-10-07T01:21:26.867Z,100455.25
2018-10-07T01:23:55.963Z,100464.66
2018-10-07T01:26:25.080Z,100459.90
2018-10-07T01:28:54.202Z,100455.81
2018-10-07T01:31:23.276Z,100464.61
2018-10-07T01:33:52.394Z,100469.00
2018-10-07T01:36:21.643Z,100466.05
2018-10-07T01:38:50.941Z,100466.05
2018-10-07T01:41:19.924Z,100468.18
2018-10-07T01:43:49.066Z,100466.27
2018-10-07T01:46:18.071Z,100472.14
2018-10-07T01:48:47.148Z,100487.47
2018-10-07T01:51:16.199Z,100491.98
2018-10-07T01:53:45.299Z,100499.69
2018-10-07T01:56:15.678Z,100504.56
2018-10-07T01:58:44.696Z,100498.41
2018-10-07T02:01:13.925Z,100497.20
2018-10-07T02:03:43.129Z,100505.55
2018-10-07T02:06:12.257Z,100514.94
2018-10-07T02:08:41.372Z,100514.31
2018-10-07T02:11:10.470Z,100527.94
2018-10-07T02:13:39.704Z,100543.49
2018-10-07T02:16:09.289Z,100561.64
2018-10-07T02:18:39.508Z,100551.23
2018-10-07T02:21:08.594Z,100566.11
2018-10-07T02:23:37.529Z,100572.50
2018-10-07T02:26:06.643Z,100570.75
2018-10-07T02:28:36.782Z,100585.25
2018-10-07T02:31:05.970Z,100589.37
2018-10-07T02:33:35.097Z,100596.61
2018-10-07T02:36:05.262Z,100593.33
2018-10-07T02:38:34.263Z,100610.73
2018-10-07T02:41:03.499Z,100616.97
2018-10-07T02:43:32.569Z,100620.73
2018-10-07T02:46:01.756Z,100620.61
2018-10-07T02:48:30.957Z,100614.55
2018-10-07T02:51:00.140Z,100611.13
2018-10-07T02:53:29.485Z,100620.70
2018-10-07T02:55:58.737Z,100633.23
2018-10-07T02:58:29.262Z,100659.19
2018-10-07T03:00:58.401Z,100663.38
2018-10-07T03:03:27.610Z,100666.94
2018-10-07T03:05:59.900Z,100677.98
2018-10-07T03:08:29.024Z,100682.14
2018-10-07T03:10:58.121Z,100684.55
2018-10-07T03:13:27.272Z,100683.32
2018-10-07T03:15:56.332Z,100691.61
2018-10-07T03:18:25.474Z,100695.56
2018-10-07T03:20:54.699Z,100699.66
2018-10-07T03:23:23.808Z,100708.72
2018-10-07T03:25:56.189Z,100716.61
2018-10-07T03:28:25.310Z,100722.55
2018-10-07T03:30:54.490Z,100728.83
2018-10-07T03:33:23.604Z,100732.37
2018-10-07T03:35:52.809Z,100739.39
2018-10-07T03:38:21.901Z,100735.56
2018-10-07T03:40:51.147Z,100733.62
2018-10-07T03:43:20.321Z,100745.62
2018-10-07T03:45:49.696Z,100747.47
2018-10-07T03:48:19.136Z,100757.83
2018-10-07T03:50:48.277Z,100760.42
2018-10-07T03:53:17.547Z,100765.07
2018-10-07T03:55:46.870Z,100760.84
2018-10-07T03:58:15.977Z,100768.77
2018-10-07T04:00:45.627Z,100778.20
2018-10-07T04:03:14.703Z,100771.49
2018-10-07T04:05:43.885Z,100775.63
2018-10-07T04:08:13.169Z,100770.08
2018-10-07T04:10:42.331Z,100780.20
2018-10-07T04:13:11.524Z,100780.30
2018-10-07T04:15:40.661Z,100780.20
2018-10-07T04:18:09.971Z,100781.03
2018-10-07T04:20:39.189Z,100784.22
2018-10-07T04:23:08.389Z,100786.80
2018-10-07T04:25:37.629Z,100789.69
2018-10-07T04:28:06.963Z,100791.67
2018-10-07T04:30:36.202Z,100789.91
2018-10-07T04:33:05.659Z,100790.75
2018-10-07T04:35:34.893Z,100798.06
2018-10-07T04:38:04.321Z,100788.72
2018-10-07T04:40:33.333Z,100798.84
2018-10-07T04:43:02.487Z,100792.40
2018-10-07T04:45:31.541Z,100799.02
2018-10-07T04:48:00.696Z,100797.09
2018-10-07T04:50:29.983Z,100802.45
2018-10-07T04:52:59.119Z,100809.38
2018-10-07T04:55:28.283Z,100808.47
2018-10-07T04:57:57.452Z,100825.58
2018-10-07T05:00:26.594Z,100822.48
2018-10-07T05:02:55.721Z,100836.49
2018-10-07T05:05:25.209Z,100828.05
2018-10-07T05:07:55.799Z,100835.38
2018-10-07T05:11:05.461Z,100847.83
2018-10-07T05:13:42.476Z,100848.06
2018-10-07T05:16:11.644Z,100855.84
2018-10-07T05:18:40.791Z,100860.56
2018-10-07T05:21:10.020Z,100867.73
2018-10-07T05:23:39.129Z,100878.89
2018-10-07T05:26:09.476Z,100881.95
2018-10-07T05:28:38.572Z,100890.70
2018-10-07T05:31:07.744Z,100888.77
2018-10-07T05:33:37.024Z,100892.32
2018-10-07T05:36:06.148Z,100907.20
2018-10-07T05:38:35.681Z,100912.11
2018-10-07T05:41:04.900Z,100923.13
2018-10-07T05:43:33.857Z,100929.68
2018-10-07T05:46:03.164Z,100934.85
2018-10-07T05:48:32.783Z,100942.84
2018-10-07T05:51:01.942Z,100949.73
2018-10-07T05:53:30.969Z,100952.94
2018-10-07T05:56:00.291Z,100956.63
2018-10-07T05:58:30.007Z,100960.16
2018-10-07T06:01:09.384Z,100969.02
2018-10-07T06:03:54.563Z,100975.44
2018-10-07T06:06:23.965Z,100978.88
2018-10-07T06:12:05.254Z,100978.48
2018-10-07T06:14:47.673Z,100991.90
2018-10-07T06:17:48.085Z,100999.05
2018-10-07T06:20:19.847Z,101012.52
2018-10-07T06:22:53.653Z,101024.59
2018-10-07T06:25:22.960Z,101020.92
2018-10-07T06:27:52.255Z,101033.91
2018-10-07T06:30:21.501Z,101043.33
2018-10-07T06:32:50.710Z,101037.36
2018-10-07T06:35:19.989Z,101048.39
2018-10-07T06:37:49.151Z,101051.19
2018-10-07T06:40:18.377Z,101052.16
2018-10-07T06:42:47.698Z,101066.48
2018-10-07T06:45:17.012Z,101064.78
2018-10-07T06:47:50.293Z,101078.28
2018-10-07T06:50:19.712Z,101088.83
2018-10-07T06:52:48.964Z,101080.70
2018-10-07T06:55:18.208Z,101075.42
2018-10-07T06:57:50.800Z,101075.53
2018-10-07T07:00:20.649Z,101087.72
2018-10-07T07:02:50.100Z,101100.61
2018-10-07T07:05:19.326Z,101094.41
2018-10-07T07:07:52.290Z,101105.96
2018-10-07T07:10:21.633Z,101110.81
2018-10-07T07:12:50.915Z,101115.17
2018-10-07T07:15:20.552Z,101116.48
2018-10-07T07:17:50.268Z,101118.30
2018-10-07T07:20:19.666Z,101118.75
2018-10-07T07:22:49.461Z,101114.97
2018-10-07T07:25:18.751Z,101117.00
2018-10-07T07:27:48.050Z,101122.91
2018-10-07T07:30:17.250Z,101119.61
2018-10-07T07:32:46.432Z,101115.92
2018-10-07T07:35:15.581Z,101126.60
2018-10-07T07:37:44.760Z,101133.69
2018-10-07T07:40:14.008Z,101129.16
2018-10-07T07:42:43.356Z,101124.16
2018-10-07T07:45:12.628Z,101134.66
2018-10-07T07:47:42.025Z,101138.73
2018-10-07T07:50:11.382Z,101140.67
2018-10-07T07:52:40.562Z,101136.17
2018-10-07T07:55:09.927Z,101140.02
2018-10-07T07:57:39.133Z,101145.99
2018-10-07T08:00:08.377Z,101149.21
2018-10-07T08:02:37.561Z,101156.00
2018-10-07T08:05:06.859Z,101158.87
2018-10-07T08:07:36.117Z,101168.47
2018-10-07T08:10:05.350Z,101161.63
2018-10-07T08:12:34.760Z,101168.76
2018-10-07T08:15:04.202Z,101180.97
2018-10-07T08:17:33.467Z,101191.96
2018-10-07T08:20:02.526Z,101195.68
2018-10-07T08:22:31.898Z,101197.11
2018-10-07T08:25:01.165Z,101193.69
2018-10-07T08:27:34.262Z,101204.33
2018-10-07T08:30:03.382Z,101203.50
2018-10-07T08:32:32.937Z,101210.00
2018-10-07T08:35:02.200Z,101222.37
2018-10-07T08:37:31.341Z,101228.78
2018-10-07T08:40:00.552Z,101230.02
2018-10-07T08:42:29.850Z,101235.81
2018-10-07T08:44:59.113Z,101235.51
2018-10-07T08:47:28.320Z,101239.13
2018-10-07T08:49:57.549Z,101246.03
2018-10-07T08:52:27.072Z,101248.11
2018-10-07T08:54:56.273Z,101234.80
2018-10-07T08:57:26.552Z,101237.77
2018-10-07T08:59:55.859Z,101240.67
2018-10-07T09:02:25.790Z,101244.29
2018-10-07T09:04:55.977Z,101248.13
2018-10-07T09:07:25.877Z,101247.10
2018-10-07T09:09:55.313Z,101251.05
2018-10-07T09:12:24.872Z,101253.94
2018-10-07T09:14:56.133Z,101258.30
2018-10-07T09:17:26.772Z,101252.20
2018-10-07T09:19:55.965Z,101251.98
2018-10-07T09:22:25.480Z,101260.16
2018-10-07T09:24:55.179Z,101262.95
2018-10-07T09:27:24.784Z,101264.37
2018-10-07T09:29:54.212Z,101269.02
2018-10-07T09:32:23.906Z,101268.10
2018-10-07T09:34:53.136Z,101264.47
2018-10-07T09:37:22.641Z,101268.20
2018-10-07T09:39:52.229Z,101273.33
2018-10-07T09:42:21.822Z,101278.29
2018-10-07T09:44:51.510Z,101282.23
2018-10-07T09:47:21.738Z,101276.61
2018-10-07T09:49:51.125Z,101281.48
2018-10-07T09:52:20.644Z,101280.52
2018-10-07T09:54:49.808Z,101281.73
2018-10-07T09:57:19.161Z,101284.75
2018-10-07T09:59:49.697Z,101282.77
2018-10-07T10:02:18.982Z,101280.20
2018-10-07T10:04:48.830Z,101284.30
2018-10-07T10:07:18.088Z,101288.94
2018-10-07T10:09:47.303Z,101297.91
2018-10-07T10:12:16.707Z,101301.62
2018-10-07T10:14:45.992Z,101295.53
2018-10-07T10:17:18.519Z,101302.96
2018-10-07T10:20:13.605Z,101298.60
2018-10-07T10:24:57.205Z,101298.88
2018-10-07T10:27:47.447Z,101303.21
2018-10-07T10:32:28.986Z,101297.72
2018-10-07T10:35:06.086Z,101310.20
2018-10-07T10:38:46.432Z,101308.66
2018-10-07T10:41:20.809Z,101314.53
2018-10-07T10:43:57.551Z,101320.36
2018-10-07T10:46:44.303Z,101320.44
2018-10-07T10:49:48.019Z,101322.72
2018-10-07T10:52:21.701Z,101318.73
2018-10-07T10:55:57.632Z,101327.09
2018-10-07T10:58:40.677Z,101331.45
2018-10-07T11:01:25.799Z,101323.91
2018-10-07T11:04:00.748Z,101328.61
2018-10-07T11:08:49.995Z,101319.58
2018-10-07T11:11:28.362Z,101323.56
2018-10-07T11:14:07.177Z,101324.88
2018-10-07T11:17:49.505Z,101324.56
2018-10-07T11:20:26.147Z,101318.67
2018-10-07T11:23:14.177Z,101316.06
2018-10-07T11:28:00.454Z,101311.19
2018-10-07T11:33:14.135Z,101312.86
2018-10-07T11:35:56.604Z,101297.52
2018-10-07T11:38:57.022Z,101301.42
2018-10-07T11:41:32.752Z,101302.50
2018-10-07T11:45:12.491Z,101305.13
2018-10-07T11:48:00.704Z,101298.42
2018-10-07T11:51:28.100Z,101295.20
2018-10-07T11:53:59.714Z,101286.36
2018-10-07T11:56:29.283Z,101288.06
2018-10-07T11:58:59.205Z,101291.98
2018-10-07T12:01:28.653Z,101287.58
2018-10-07T12:03:58.041Z,101290.11
2018-10-07T12:06:27.945Z,101284.05
2018-10-07T12:08:57.193Z,101282.98
2018-10-07T12:11:32.089Z,101280.90
2018-10-07T12:14:03.177Z,101274.77
2018-10-07T12:16:33.515Z,101268.02
2018-10-07T12:19:02.750Z,101263.95
2018-10-07T12:21:31.957Z,101264.37
2018-10-07T12:24:01.147Z,101255.88
2018-10-07T12:26:31.483Z,101255.24
2018-10-07T12:29:01.207Z,101259.42
2018-10-07T12:31:30.537Z,101258.88
2018-10-07T12:33:59.876Z,101263.21
2018-10-07T12:36:30.093Z,101261.92
2018-10-07T12:39:01.544Z,101270.36
2018-10-07T12:41:33.191Z,101258.75
2018-10-07T12:44:08.405Z,101263.83
2018-10-07T12:46:37.482Z,101270.09
2018-10-07T12:49:07.870Z,101266.00
2018-10-07T12:51:37.137Z,101264.42
2018-10-07T12:54:11.818Z,101271.13
2018-10-07T12:56:41.046Z,101277.43
2018-10-07T12:59:10.335Z,101275.53
2018-10-07T13:01:41.156Z,101272.22
2018-10-07T13:04:10.617Z,101269.38
2018-10-07T13:06:39.769Z,101282.72
2018-10-07T13:09:16.375Z,101282.42
2018-10-07T13:11:46.703Z,101283.27
2018-10-07T13:14:16.038Z,101281.14
2018-10-07T13:16:45.277Z,101284.22
2018-10-07T13:19:16.026Z,101283.51
2018-10-07T13:21:45.329Z,101303.58
2018-10-07T13:24:15.779Z,101298.88
2018-10-07T13:26:45.028Z,101299.22
2018-10-07T13:29:15.264Z,101299.02
2018-10-07T13:31:44.657Z,101294.03
2018-10-07T13:34:13.809Z,101288.09
2018-10-07T13:36:43.107Z,101280.92
2018-10-07T13:39:13.074Z,101280.86
2018-10-07T13:41:42.852Z,101271.70
2018-10-07T13:44:14.478Z,101276.42
2018-10-07T13:46:46.577Z,101289.08
2018-10-07T13:49:15.772Z,101291.50
2018-10-07T13:51:45.063Z,101299.00
2018-10-07T13:54:14.290Z,101305.81
2018-10-07T13:56:44.353Z,101318.39
2018-10-07T13:59:17.327Z,101314.98
2018-10-07T14:01:47.164Z,101321.69
2018-10-07T14:04:16.425Z,101334.80
2018-10-07T14:06:45.730Z,101315.58
2018-10-07T14:09:14.970Z,101318.39
2018-10-07T14:11:44.362Z,101322.06
2018-10-07T14:14:13.571Z,101320.54
2018-10-07T14:16:42.873Z,101324.34
2018-10-07T14:19:13.192Z,101319.62
2018-10-07T14:21:42.479Z,101321.66
2018-10-07T14:24:11.890Z,101328.55
2018-10-07T14:26:41.129Z,101327.84
2018-10-07T14:29:10.294Z,101327.83
2018-10-07T14:31:39.503Z,101333.42
2018-10-07T14:34:08.928Z,101341.78
2018-10-07T14:36:38.113Z,101343.00
2018-10-07T14:39:12.059Z,101339.13
2018-10-07T14:41:41.330Z,101349.88
2018-10-07T14:44:10.751Z,101348.73
2018-10-07T14:46:40.077Z,101346.69
2018-10-07T14:49:09.417Z,101356.59
2018-10-07T14:51:38.833Z,101353.20
2018-10-07T14:54:07.957Z,101354.31
2018-10-07T14:56:37.293Z,101353.54
2018-10-07T14:59:06.817Z,101351.17
2018-10-07T15:01:36.889Z,101351.22
2018-10-07T15:04:06.963Z,101357.98
2018-10-07T15:06:36.133Z,101356.34
2018-10-07T15:09:07.809Z,101361.84
2018-10-07T15:11:36.991Z,101360.90
2018-10-07T15:14:06.409Z,101366.14
2018-10-07T15:16:36.113Z,101361.12
2018-10-07T15:19:06.354Z,101356.59
2018-10-07T15:21:35.708Z,101355.52
2018-10-07T15:24:05.056Z,101361.19
2018-10-07T15:26:38.245Z,101366.08
2018-10-07T15:29:07.618Z,101372.40
2018-10-07T15:31:36.916Z,101371.33
2018-10-07T15:34:06.316Z,101373.17
2018-10-07T15:36:36.281Z,101369.06
2018-10-07T15:39:06.728Z,101364.73
2018-10-07T15:41:36.057Z,101362.61
2018-10-07T15:44:07.220Z,101363.69
2018-10-07T15:46:36.465Z,101356.08
2018-10-07T15:49:05.732Z,101362.34
2018-10-07T15:51:35.797Z,101360.41
2018-10-07T15:54:05.089Z,101362.09
2018-10-07T15:56:34.883Z,101349.50
2018-10-07T15:59:04.062Z,101348.66
2018-10-07T16:01:33.227Z,101361.19
2018-10-07T16:04:02.337Z,101366.07
2018-10-07T16:06:31.393Z,101369.44
2018-10-07T16:09:00.700Z,101373.59
2018-10-07T16:11:29.732Z,101369.85
2018-10-07T16:13:58.825Z,101371.09
2018-10-07T16:16:28.230Z,101377.66
2018-10-07T16:18:57.415Z,101390.45
2018-10-07T16:21:26.689Z,101387.20
2018-10-07T16:23:56.265Z,101396.86
2018-10-07T16:26:25.561Z,101396.19
2018-10-07T16:28:55.695Z,101389.87
2018-10-07T16:31:24.865Z,101388.62
2018-10-07T16:33:54.058Z,101382.26
2018-10-07T16:36:23.192Z,101386.75
2018-10-07T16:38:52.485Z,101403.47
2018-10-07T16:41:22.462Z,101400.81
2018-10-07T16:43:51.716Z,101396.92
2018-10-07T16:46:20.921Z,101402.06
2018-10-07T16:48:50.090Z,101406.13
2018-10-07T16:51:19.357Z,101407.47
2018-10-07T16:53:48.651Z,101412.21
2018-10-07T16:56:17.847Z,101413.72
2018-10-07T16:58:47.065Z,101417.20
2018-10-07T17:01:16.285Z,101420.55
2018-10-07T17:03:45.631Z,101422.48
2018-10-07T17:06:14.979Z,101424.34
2018-10-07T17:08:44.254Z,101420.52
2018-10-07T17:11:13.473Z,101433.75
2018-10-07T17:13:42.728Z,101431.70
2018-10-07T17:16:11.895Z,101433.34
2018-10-07T17:18:41.199Z,101439.09
2018-10-07T17:21:10.347Z,101445.20
2018-10-07T17:23:39.592Z,101433.63
2018-10-07T17:26:08.863Z,101437.70
2018-10-07T17:28:38.128Z,101442.61
2018-10-07T17:31:07.555Z,101449.19
2018-10-07T17:33:36.911Z,101458.13
2018-10-07T17:36:06.257Z,101458.02
2018-10-07T17:38:35.665Z,101468.26
2018-10-07T17:41:06.673Z,101466.30
2018-10-07T17:43:36.252Z,101471.83
2018-10-07T17:46:05.768Z,101475.36
2018-10-07T17:48:35.101Z,101472.38
2018-10-07T17:51:04.598Z,101476.05
2018-10-07T17:53:34.502Z,101472.77
2018-10-07T17:56:03.920Z,101475.42
2018-10-07T17:58:33.305Z,101482.95
2018-10-07T18:01:02.576Z,101481.95
2018-10-07T18:03:31.911Z,101488.30
2018-10-07T18:06:01.408Z,101488.80
2018-10-07T18:08:30.895Z,101481.16
2018-10-07T18:11:01.276Z,101479.66
2018-10-07T18:13:30.649Z,101477.50
2018-10-07T18:16:00.019Z,101486.33
2018-10-07T18:18:29.911Z,101491.66
2018-10-07T18:20:59.258Z,101494.83
2018-10-07T18:23:29.262Z,101497.50
2018-10-07T18:25:58.867Z,101498.36
2018-10-07T18:28:28.361Z,101501.02
2018-10-07T18:30:57.883Z,101505.14
2018-10-07T18:33:27.405Z,101504.33
2018-10-07T18:35:56.691Z,101505.98
2018-10-07T18:38:26.011Z,101506.95
2018-10-07T18:40:55.251Z,101501.97
2018-10-07T18:43:24.672Z,101505.80
2018-10-07T18:45:54.089Z,101500.31
2018-10-07T18:48:23.802Z,101499.96
2018-10-07T18:50:53.347Z,101500.28
2018-10-07T18:53:22.714Z,101509.25
2018-10-07T18:55:52.129Z,101506.59
2018-10-07T18:58:21.654Z,101508.73
2018-10-07T19:00:51.246Z,101515.88
2018-10-07T19:03:20.658Z,101515.53
2018-10-07T19:05:50.171Z,101512.03
2018-10-07T19:08:19.600Z,101510.22
2018-10-07T19:10:49.395Z,101509.72
2018-10-07T19:13:18.841Z,101506.40
2018-10-07T19:15:49.130Z,101511.37
2018-10-07T19:18:18.661Z,101513.72
2018-10-07T19:20:48.240Z,101515.88
2018-10-07T19:23:17.728Z,101513.54
2018-10-07T19:25:47.188Z,101516.48
2018-10-07T19:28:16.613Z,101517.11
2018-10-07T19:30:46.187Z,101517.39
2018-10-07T19:33:15.556Z,101514.38
2018-10-07T19:35:44.943Z,101519.03
2018-10-07T19:38:14.106Z,101517.70
2018-10-07T19:40:43.378Z,101520.84
2018-10-07T19:43:12.904Z,101510.34
2018-10-07T19:45:42.486Z,101510.83
2018-10-07T19:48:11.859Z,101515.17
2018-10-07T19:50:41.131Z,101518.49
2018-10-07T19:53:10.351Z,101530.14
2018-10-07T19:55:40.606Z,101527.32
2018-10-07T19:58:09.970Z,101532.32
2018-10-07T20:00:39.745Z,101525.31
2018-10-07T20:03:08.919Z,101537.94
2018-10-07T20:05:38.136Z,101542.91
2018-10-07T20:08:07.776Z,101541.70
2018-10-07T20:10:37.310Z,101541.03
2018-10-07T20:13:07.460Z,101535.89
2018-10-07T20:15:36.676Z,101539.22
2018-10-07T20:18:06.191Z,101539.36
2018-10-07T20:20:35.392Z,101534.08
2018-10-07T20:23:04.590Z,101529.97
2018-10-07T20:25:33.796Z,101529.13
2018-10-07T20:28:03.004Z,101519.29
2018-10-07T20:30:32.125Z,101523.89
2018-10-07T20:33:01.331Z,101520.69
2018-10-07T20:35:30.608Z,101517.31
2018-10-07T20:37:59.905Z,101513.12
2018-10-07T20:40:29.112Z,101512.61
2018-10-07T20:42:58.310Z,101517.31
2018-10-07T20:45:27.434Z,101517.66
2018-10-07T20:47:56.699Z,101518.45
2018-10-07T20:50:25.829Z,101516.59
2018-10-07T20:52:55.094Z,101517.92
2018-10-07T20:55:24.274Z,101521.09
2018-10-07T20:57:53.509Z,101512.96
2018-10-07T21:00:22.688Z,101522.08
2018-10-07T21:02:51.793Z,101522.26
2018-10-07T21:05:20.897Z,101519.78
2018-10-07T21:07:50.171Z,101521.42
2018-10-07T21:10:19.234Z,101526.23
2018-10-07T21:12:48.394Z,101532.58
2018-10-07T21:15:17.597Z,101533.50
2018-10-07T21:17:46.740Z,101537.58
2018-10-07T21:20:15.839Z,101541.87
2018-10-07T21:22:44.967Z,101531.85
2018-10-07T21:25:14.146Z,101534.33
2018-10-07T21:27:43.285Z,101533.60
2018-10-07T21:30:12.553Z,101532.34
2018-10-07T21:32:42.423Z,101529.30
2018-10-07T21:35:11.657Z,101519.16
2018-10-07T21:37:40.840Z,101516.69
2018-10-07T21:40:10.024Z,101518.03
2018-10-07T21:42:39.204Z,101519.36
2018-10-07T21:45:08.341Z,101513.31
2018-10-07T21:47:37.523Z,101516.05
2018-10-07T21:50:06.667Z,101510.00
2018-10-07T21:52:35.781Z,101511.74
2018-10-07T21:55:05.036Z,101510.39
2018-10-07T21:57:34.033Z,101507.03
2018-10-07T22:00:03.429Z,101499.23
2018-10-07T22:02:32.751Z,101493.77
2018-10-07T22:05:01.976Z,101495.09
2018-10-07T22:07:31.129Z,101494.11
2018-10-07T22:10:00.727Z,101503.10
2018-10-07T22:12:30.139Z,101508.50
2018-10-07T22:15:00.371Z,101504.29
2018-10-07T22:17:29.552Z,101505.70
2018-10-07T22:19:58.688Z,101508.37
2018-10-07T22:22:29.846Z,101514.34
2018-10-07T22:24:59.139Z,101502.32
2018-10-07T22:27:28.229Z,101505.92
2018-10-07T22:29:57.448Z,101502.22
2018-10-07T22:32:26.515Z,101495.58
2018-10-07T22:34:55.681Z,101505.84
2018-10-07T22:37:24.821Z,101508.16
2018-10-07T22:39:53.937Z,101509.16
2018-10-07T22:42:23.075Z,101502.16
2018-10-07T22:44:52.415Z,101501.78
2018-10-07T22:47:21.508Z,101498.75
2018-10-07T22:49:50.625Z,101498.08
2018-10-07T22:52:19.772Z,101491.92
2018-10-07T22:54:48.885Z,101482.28
2018-10-07T22:57:17.965Z,101491.06
2018-10-07T22:59:47.135Z,101497.32
2018-10-07T23:02:17.274Z,101496.50
2018-10-07T23:04:46.472Z,101501.10
2018-10-07T23:07:15.544Z,101487.18
2018-10-07T23:09:44.702Z,101486.45
2018-10-07T23:12:13.732Z,101488.71
2018-10-07T23:14:43.337Z,101485.14
2018-10-07T23:17:12.440Z,101488.25
2018-10-07T23:19:41.554Z,101495.86
2018-10-07T23:22:10.712Z,101486.66
2018-10-07T23:24:40.036Z,101486.33
2018-10-07T23:27:09.006Z,101481.78
2018-10-07T23:29:38.220Z,101491.83
2018-10-07T23:32:07.434Z,101483.30
2018-10-07T23:34:36.579Z,101478.61
2018-10-07T23:37:05.851Z,101481.59
2018-10-07T23:39:34.949Z,101480.69
2018-10-07T23:42:04.251Z,101476.84
2018-10-07T23:44:33.308Z,101477.66
2018-10-07T23:47:02.469Z,101472.35
2018-10-07T23:49:31.644Z,101465.89
2018-10-07T23:52:00.970Z,101468.34
2018-10-07T23:54:30.009Z,101468.31
2018-10-07T23:56:59.213Z,101471.39
2018-10-07T23:59:28.297Z,101473.36
